< < Back
Terminal Aerodrome Forecast


Current Version              Previous Versions:   1  2  3  4  5  6  7  8  9  

Terminal Aerodrome Forecast

014
FTUS42 KTAE 040531
TAFTLH
TAF
KTLH 040531Z 0406/0506 00000KT P6SM SCT250
     FM041500 VRB05KT P6SM SCT050 BKN250
     FM041900 26005KT P6SM VCTS SCT050CB BKN100=

Latest METAR

103
SAUS80 KWBC 050300 RRA
MTRTLH
METAR KTLH 050253Z 00000KT 10SM FEW250 26/23 A2998 RMK AO2 SLP152 LTG
DSNT NE CB DSNT NE LAST AUGMENTED OBS T02560233 51011 $


USA.gov is the U.S. government's official web portal to all federal, state and local government web resources and services.